Time;durP1;ratioP1;P1;durP2;ratioP2;P2;SDS_P1;SDS_P2;PMS_P1;PMS_P2;Temp;Humidity;BMP_temperature;BMP_pressure;BME280_temperature;BME280_humidity;BME280_pressure;Samples;Min_cycle;Max_cycle;Signal;HPM_P1;HPM_P2
2023/02/02 00:00:48;;;;;;;13.10;8.50;;;;;;;3.20;100.00;99386.48;105325;1256;100306;-74
2023/02/02 00:03:34;;;;;;;13.50;9.30;;;;;;;3.21;100.00;99387.95;105187;1256;97995;-73
2023/02/02 00:06:21;;;;;;;14.60;9.90;;;;;;;3.23;100.00;99384.23;105301;1256;98016;-74
2023/02/02 00:09:09;;;;;;;16.00;9.70;;;;;;;3.23;100.00;99380.52;105288;1260;99228;-75
2023/02/02 00:11:56;;;;;;;14.90;9.00;;;;;;;3.25;99.99;99374.19;105280;1271;112321;-73
2023/02/02 00:14:42;;;;;;;16.50;9.40;;;;;;;3.24;100.00;99375.98;105242;1259;100636;-73
2023/02/02 00:17:27;;;;;;;13.00;9.20;;;;;;;3.25;100.00;99377.30;105214;1262;99030;-73
2023/02/02 00:20:13;;;;;;;12.00;9.70;;;;;;;3.26;100.00;99377.34;105248;1257;97930;-74
2023/02/02 00:22:59;;;;;;;17.80;10.70;;;;;;;3.28;100.00;99372.96;105236;1258;98497;-74
2023/02/02 00:25:48;;;;;;;13.40;9.00;;;;;;;3.30;100.00;99370.60;105259;1259;102519;-74
2023/02/02 00:28:33;;;;;;;11.50;10.00;;;;;;;3.30;99.99;99370.90;106025;1256;99070;-75
2023/02/02 00:31:19;;;;;;;15.70;10.20;;;;;;;3.29;99.99;99370.88;105230;1270;99238;-74
2023/02/02 00:34:04;;;;;;;13.50;8.50;;;;;;;3.28;100.00;99370.84;105225;1259;97969;-73
2023/02/02 00:36:50;;;;;;;11.10;7.30;;;;;;;3.26;100.00;99366.27;105186;1258;98393;-73
2023/02/02 00:39:35;;;;;;;12.90;8.30;;;;;;;3.23;100.00;99367.83;105168;1259;103085;-73
2023/02/02 00:42:22;;;;;;;12.10;7.90;;;;;;;3.22;100.00;99364.59;105233;1257;100417;-74
2023/02/02 00:45:15;;;;;;;15.70;8.50;;;;;;;3.21;100.00;99362.39;105206;1259;98961;-73
2023/02/02 00:48:00;;;;;;;13.60;7.40;;;;;;;3.21;100.00;99360.71;105267;1260;98494;-74
2023/02/02 00:50:45;;;;;;;12.20;7.90;;;;;;;3.19;100.00;99361.42;105211;1255;99087;-73
2023/02/02 00:53:31;;;;;;;11.40;7.80;;;;;;;3.18;100.00;99362.59;105174;1257;101308;-74
2023/02/02 00:56:16;;;;;;;13.50;8.00;;;;;;;3.19;100.00;99360.89;105224;1257;100532;-74
2023/02/02 00:59:02;;;;;;;13.10;8.40;;;;;;;3.21;100.00;99357.70;105195;1257;98488;-73
2023/02/02 01:01:48;;;;;;;15.40;7.80;;;;;;;3.19;100.00;99355.72;105227;1257;97969;-74
2023/02/02 01:04:33;;;;;;;18.80;8.30;;;;;;;3.19;100.00;99357.42;105175;1259;98478;-74
2023/02/02 01:07:19;;;;;;;14.40;7.50;;;;;;;3.18;100.00;99355.92;105258;1259;101361;-72
2023/02/02 01:10:07;;;;;;;13.30;7.60;;;;;;;3.16;100.00;99353.31;105441;1259;99086;-72
2023/02/02 01:12:53;;;;;;;12.50;7.20;;;;;;;3.12;100.00;99351.91;105052;1263;98962;-73
2023/02/02 01:15:38;;;;;;;13.50;7.20;;;;;;;3.10;100.00;99347.88;105331;1257;99244;-74
2023/02/02 01:18:24;;;;;;;12.00;7.30;;;;;;;3.08;100.00;99351.29;105314;1260;97799;-74
2023/02/02 01:21:11;;;;;;;11.20;7.20;;;;;;;3.05;100.00;99350.80;105370;1257;101523;-74
2023/02/02 01:23:56;;;;;;;11.50;7.40;;;;;;;3.04;100.00;99349.62;105281;1259;99317;-73
2023/02/02 01:26:42;;;;;;;12.90;7.20;;;;;;;3.04;100.00;99350.57;105123;1257;99427;-73
2023/02/02 01:29:27;;;;;;;12.90;8.00;;;;;;;3.02;100.00;99353.74;105131;1260;99308;-73
2023/02/02 01:32:13;;;;;;;13.40;7.90;;;;;;;3.02;100.00;99351.80;105274;1257;98468;-73
2023/02/02 01:34:58;;;;;;;14.10;7.60;;;;;;;3.01;100.00;99354.92;105105;1259;102098;-73
2023/02/02 01:37:44;;;;;;;12.20;7.60;;;;;;;3.01;100.00;99354.18;105167;1258;99142;-71
2023/02/02 01:40:29;;;;;;;10.30;7.10;;;;;;;3.01;100.00;99360.05;105237;1261;97873;-74
2023/02/02 01:43:30;;;;;;;13.60;7.70;;;;;;;3.00;100.00;99363.31;105243;1259;97983;-72
2023/02/02 01:46:18;;;;;;;8.80;6.40;;;;;;;2.99;100.00;99360.23;105320;1259;97854;-74
2023/02/02 01:49:14;;;;;;;11.50;5.90;;;;;;;2.97;100.00;99359.95;105183;1257;101379;-73
2023/02/02 01:52:00;;;;;;;8.50;6.20;;;;;;;2.97;100.00;99357.00;105317;1259;99276;-74
2023/02/02 01:54:50;;;;;;;10.90;6.50;;;;;;;2.96;100.00;99362.39;105175;1259;99285;-75
2023/02/02 01:57:45;;;;;;;12.20;7.20;;;;;;;2.95;100.00;99359.48;105222;1257;97937;-73
2023/02/02 02:00:31;;;;;;;11.10;6.00;;;;;;;2.95;100.00;99359.19;105212;1260;98841;-73
2023/02/02 02:03:21;;;;;;;12.80;6.80;;;;;;;2.96;100.00;99360.45;105147;1260;102764;-75
2023/02/02 02:06:12;;;;;;;12.30;6.80;;;;;;;2.96;100.00;99362.33;105275;1259;100444;-74
2023/02/02 02:09:03;;;;;;;12.30;6.70;;;;;;;2.97;100.00;99366.29;105282;1257;98107;-74
2023/02/02 02:11:48;;;;;;;15.40;7.50;;;;;;;3.00;100.00;99361.57;105488;1257;97996;-73
2023/02/02 02:18:03;;;;;;;15.50;8.30;;;;;;;3.03;100.00;99358.88;105099;1259;101355;-73
2023/02/02 02:28:07;;;;;;;9.90;6.80;;;;;;;3.10;100.00;99361.80;105143;1259;99235;-73
2023/02/02 02:31:13;;;;;;;16.60;7.60;;;;;;;3.12;100.00;99361.43;105183;1259;98472;-74
2023/02/02 02:34:28;;;;;;;19.30;6.80;;;;;;;3.13;100.00;99364.63;105113;1258;101288;-73
2023/02/02 02:37:30;;;;;;;14.20;7.30;;;;;;;3.15;100.00;99364.66;105104;1276;99538;-72
2023/02/02 02:40:28;;;;;;;19.90;8.80;;;;;;;3.16;100.00;99365.45;105231;1255;98929;-73
2023/02/02 02:43:20;;;;;;;16.90;7.00;;;;;;;3.17;100.00;99370.41;105237;1259;97953;-75
2023/02/02 02:46:08;;;;;;;15.30;6.80;;;;;;;3.19;100.00;99368.77;105136;1257;98486;-74
2023/02/02 02:48:59;;;;;;;18.50;7.00;;;;;;;3.21;100.00;99369.88;105220;1258;102429;-75
2023/02/02 02:51:52;;;;;;;11.20;6.20;;;;;;;3.22;100.00;99371.25;105200;1257;99390;-74
2023/02/02 02:54:56;;;;;;;13.30;5.80;;;;;;;3.24;100.00;99372.67;105221;1259;98961;-74
2023/02/02 02:58:05;;;;;;;13.60;6.00;;;;;;;3.26;100.00;99373.70;105177;1257;97948;-73
2023/02/02 03:01:01;;;;;;;13.70;6.30;;;;;;;3.28;100.00;99367.96;105175;1261;98576;-75
2023/02/02 03:04:07;;;;;;;15.60;6.30;;;;;;;3.30;100.00;99369.58;105200;1262;101339;-75
2023/02/02 03:07:22;;;;;;;20.70;6.50;;;;;;;3.33;100.00;99371.20;105200;1258;99100;-74
2023/02/02 03:10:12;;;;;;;18.10;6.10;;;;;;;3.35;100.00;99371.41;105348;1257;98929;-74
2023/02/02 03:12:57;;;;;;;16.80;6.30;;;;;;;3.38;100.00;99378.15;105191;1258;98080;-75
2023/02/02 03:15:44;;;;;;;18.70;7.70;;;;;;;3.40;100.00;99380.07;105170;1256;98659;-73
2023/02/02 03:18:32;;;;;;;22.80;7.50;;;;;;;3.42;100.00;99378.57;105393;1257;102641;-74
2023/02/02 03:21:17;;;;;;;19.10;6.40;;;;;;;3.43;100.00;99373.84;105304;1259;100097;-74
2023/02/02 03:24:03;;;;;;;19.50;6.70;;;;;;;3.44;100.00;99371.95;105166;1258;100108;-74
2023/02/02 03:26:49;;;;;;;12.90;5.00;;;;;;;3.45;100.00;99375.25;105099;1256;99152;-74
2023/02/02 03:29:35;;;;;;;11.20;4.90;;;;;;;3.45;100.00;99377.14;105170;1257;98350;-73
2023/02/02 03:32:21;;;;;;;14.30;5.60;;;;;;;3.45;100.00;99376.77;105271;1259;101475;-73
2023/02/02 03:35:07;;;;;;;16.40;5.40;;;;;;;3.47;100.00;99377.44;105199;1258;100481;-74
2023/02/02 03:37:53;;;;;;;17.00;5.50;;;;;;;3.49;100.00;99376.70;105200;1259;99055;-75
2023/02/02 03:40:39;;;;;;;20.00;5.30;;;;;;;3.51;100.00;99375.95;105199;1260;97874;-73
2023/02/02 03:43:24;;;;;;;14.50;5.00;;;;;;;3.52;100.00;99376.02;105187;1259;98422;-74
2023/02/02 03:46:10;;;;;;;11.80;4.00;;;;;;;3.53;100.00;99378.73;105175;1256;101328;-73
2023/02/02 03:48:55;;;;;;;14.10;4.60;;;;;;;3.53;100.00;99380.86;105205;1256;99284;-73
2023/02/02 03:51:43;;;;;;;13.20;4.10;;;;;;;3.55;100.00;99382.77;105222;1260;98970;-74
2023/02/02 03:54:28;;;;;;;16.00;4.00;;;;;;;3.56;100.00;99382.13;105325;1259;97956;-74
2023/02/02 03:57:14;;;;;;;16.30;3.80;;;;;;;3.56;100.00;99382.13;105359;1257;97921;-73
2023/02/02 03:59:59;;;;;;;13.80;4.00;;;;;;;3.56;100.00;99383.68;105261;1259;101572;-74
2023/02/02 04:02:45;;;;;;;10.10;3.50;;;;;;;3.56;100.00;99381.92;105224;1258;100263;-73
2023/02/02 04:05:31;;;;;;;11.60;3.70;;;;;;;3.56;100.00;99383.61;105272;1257;98181;-74
2023/02/02 04:08:16;;;;;;;18.90;4.50;;;;;;;3.56;100.00;99383.64;105149;1262;98687;-71
2023/02/02 04:11:02;;;;;;;17.10;4.60;;;;;;;3.57;100.00;99385.69;105290;1257;98650;-74
2023/02/02 04:13:47;;;;;;;17.10;4.60;;;;;;;3.58;100.00;99380.66;105187;1257;102102;-73
2023/02/02 04:16:33;;;;;;;21.60;4.80;;;;;;;3.59;100.00;99374.21;105419;1257;99247;-73
2023/02/02 04:19:19;;;;;;;16.40;4.50;;;;;;;3.58;100.00;99375.46;105306;1259;99136;-74
2023/02/02 04:22:04;;;;;;;15.00;3.90;;;;;;;3.59;100.00;99374.48;105182;1257;97961;-74
2023/02/02 04:24:50;;;;;;;13.20;4.20;;;;;;;3.58;100.00;99372.13;105203;1261;97951;-75
2023/02/02 04:27:36;;;;;;;10.80;4.80;;;;;;;3.58;100.00;99371.10;105159;1261;103754;-73
2023/02/02 04:30:21;;;;;;;16.20;4.70;;;;;;;3.59;100.00;99366.52;105227;1259;100289;-73
2023/02/02 04:33:07;;;;;;;20.20;4.20;;;;;;;3.58;100.00;99360.96;105175;1258;98283;-73
2023/02/02 04:35:53;;;;;;;15.20;3.30;;;;;;;3.58;100.00;99365.84;105284;1257;97958;-74
2023/02/02 04:38:38;;;;;;;15.10;3.00;;;;;;;3.56;100.00;99364.30;105176;1261;99403;-74
2023/02/02 04:41:24;;;;;;;14.80;4.70;;;;;;;3.54;100.00;99363.65;105165;1257;103624;-74
2023/02/02 04:44:14;;;;;;;15.20;3.70;;;;;;;3.52;100.00;99361.92;105269;1257;99702;-74
2023/02/02 04:46:59;;;;;;;12.80;3.30;;;;;;;3.50;100.00;99362.86;105066;1261;97974;-74
2023/02/02 04:49:44;;;;;;;11.30;3.20;;;;;;;3.50;100.00;99357.23;105172;1261;98074;-73
2023/02/02 04:52:30;;;;;;;17.10;2.80;;;;;;;3.50;100.00;99360.59;105130;1257;99648;-74
2023/02/02 04:55:15;;;;;;;13.10;3.20;;;;;;;3.52;100.00;99362.83;105170;1259;101366;-73
2023/02/02 04:58:01;;;;;;;10.70;3.20;;;;;;;3.53;100.00;99366.68;105251;1257;100850;-74
2023/02/02 05:00:46;;;;;;;15.90;3.00;;;;;;;3.54;100.00;99365.02;105116;1261;98035;-73
2023/02/02 05:03:32;;;;;;;13.80;3.60;;;;;;;3.53;100.00;99360.85;105140;1258;99127;-74
2023/02/02 05:06:18;;;;;;;12.70;3.80;;;;;;;3.53;100.00;99360.33;105086;1258;98143;-73
2023/02/02 05:09:03;;;;;;;14.10;4.70;;;;;;;3.53;100.00;99354.70;105121;1258;103651;-74
2023/02/02 05:11:49;;;;;;;15.40;3.10;;;;;;;3.53;100.00;99354.55;105120;1259;100130;-74
2023/02/02 05:14:35;;;;;;;13.90;3.50;;;;;;;3.52;100.00;99357.27;105093;1259;98667;-74
2023/02/02 05:17:20;;;;;;;12.90;2.90;;;;;;;3.53;100.00;99359.64;105113;1261;98065;-73
2023/02/02 05:20:06;;;;;;;12.30;3.30;;;;;;;3.54;100.00;99354.61;105142;1261;98487;-73
2023/02/02 05:22:52;;;;;;;11.50;3.60;;;;;;;3.53;100.00;99355.41;105184;1258;102620;-75
2023/02/02 05:25:37;;;;;;;18.20;4.60;;;;;;;3.53;100.00;99353.64;105196;1258;99460;-74
2023/02/02 05:28:24;;;;;;;13.60;3.50;;;;;;;3.54;100.00;99351.96;105107;1261;98056;-75
2023/02/02 05:31:09;;;;;;;15.70;5.30;;;;;;;3.54;100.00;99351.39;105149;1259;97878;-74
2023/02/02 05:33:54;;;;;;;13.60;3.50;;;;;;;3.54;100.00;99347.92;105148;1261;98445;-75
2023/02/02 05:36:40;;;;;;;15.90;3.80;;;;;;;3.53;100.00;99344.77;105218;1259;101340;-74
2023/02/02 05:39:25;;;;;;;9.30;3.90;;;;;;;3.53;100.00;99345.38;105136;1261;100526;-74
2023/02/02 05:42:11;;;;;;;13.00;2.80;;;;;;;3.52;100.00;99344.79;105130;1258;99324;-73
2023/02/02 05:44:56;;;;;;;10.60;3.50;;;;;;;3.54;100.00;99347.92;105169;1261;98050;-74
2023/02/02 05:47:42;;;;;;;13.60;3.90;;;;;;;3.55;100.00;99347.74;105228;1260;98398;-74
2023/02/02 05:50:27;;;;;;;13.20;4.20;;;;;;;3.55;100.00;99347.09;105120;1257;101546;-74
2023/02/02 05:53:20;;;;;;;10.30;4.20;;;;;;;3.54;100.00;99349.17;105104;1259;100395;-74
2023/02/02 05:56:06;;;;;;;10.70;4.30;;;;;;;3.53;100.00;99348.89;105075;1261;98751;-74
2023/02/02 05:58:51;;;;;;;12.00;3.10;;;;;;;3.53;100.00;99349.05;105044;1259;97918;-73
2023/02/02 06:01:37;;;;;;;10.10;3.50;;;;;;;3.53;100.00;99348.36;105234;1261;98469;-74
2023/02/02 06:04:22;;;;;;;12.90;3.80;;;;;;;3.52;100.00;99345.31;105098;1259;102581;-75
2023/02/02 06:07:08;;;;;;;12.20;3.30;;;;;;;3.50;100.00;99343.94;105153;1261;99059;-74
2023/02/02 06:09:53;;;;;;;13.30;5.40;;;;;;;3.49;100.00;99336.00;105149;1261;98513;-74
2023/02/02 06:12:39;;;;;;;12.60;4.30;;;;;;;3.46;100.00;99336.64;105141;1261;97985;-74
2023/02/02 06:15:26;;;;;;;7.90;3.20;;;;;;;3.44;100.00;99333.83;105102;1261;99251;-74
2023/02/02 06:18:11;;;;;;;8.80;4.10;;;;;;;3.46;100.00;99331.76;105133;1268;101328;-73
2023/02/02 06:21:02;;;;;;;12.50;4.10;;;;;;;3.47;100.00;99325.61;105183;1262;99066;-74
2023/02/02 06:23:48;;;;;;;11.50;3.80;;;;;;;3.45;100.00;99325.23;105107;1257;98670;-74
2023/02/02 06:26:34;;;;;;;9.70;5.00;;;;;;;3.44;100.00;99319.58;105138;1261;99145;-75
2023/02/02 06:29:19;;;;;;;6.50;3.60;;;;;;;3.40;100.00;99318.10;105133;1260;98573;-74
2023/02/02 06:32:05;;;;;;;12.00;4.80;;;;;;;3.34;100.00;99317.00;105126;1259;101369;-73
2023/02/02 06:34:50;;;;;;;10.00;4.00;;;;;;;3.31;100.00;99314.93;105125;1259;99409;-73
2023/02/02 06:37:37;;;;;;;5.90;3.40;;;;;;;3.28;100.00;99312.04;105175;1258;98960;-74
2023/02/02 06:40:23;;;;;;;9.70;4.10;;;;;;;3.27;100.00;99310.75;105199;1257;99038;-75
2023/02/02 06:43:10;;;;;;;9.80;4.00;;;;;;;3.27;100.00;99307.61;105137;1261;97907;-74
2023/02/02 06:45:57;;;;;;;7.10;4.10;;;;;;;3.26;100.00;99303.64;105126;1261;101312;-74
2023/02/02 06:48:42;;;;;;;9.10;5.30;;;;;;;3.25;100.00;99303.17;105086;1264;100331;-75
2023/02/02 06:51:27;;;;;;;12.40;5.50;;;;;;;3.26;100.00;99299.57;105080;1257;98530;-73
2023/02/02 06:54:13;;;;;;;14.90;5.70;;;;;;;3.27;100.00;99294.67;105241;1257;98035;-73
2023/02/02 06:56:58;;;;;;;11.00;6.00;;;;;;;3.30;100.00;99294.37;105120;1260;98406;-73
2023/02/02 06:59:45;;;;;;;9.10;4.20;;;;;;;3.32;100.00;99297.33;105217;1258;101349;-74
2023/02/02 07:02:31;;;;;;;8.30;4.00;;;;;;;3.31;100.00;99295.78;105186;1260;101484;-74
2023/02/02 07:05:18;;;;;;;13.00;5.50;;;;;;;3.28;100.00;99295.89;105045;1261;99958;-74
2023/02/02 07:08:04;;;;;;;14.30;6.40;;;;;;;3.25;100.00;99299.52;105087;1258;99246;-74
2023/02/02 07:10:49;;;;;;;11.70;5.80;;;;;;;3.24;100.00;99300.70;105209;1261;98427;-73
2023/02/02 07:13:35;;;;;;;11.40;6.20;;;;;;;3.23;100.00;99304.14;105230;1259;103290;-72
2023/02/02 07:16:20;;;;;;;9.10;5.40;;;;;;;3.20;100.00;99300.95;105261;1259;99087;-74
2023/02/02 07:19:06;;;;;;;9.80;5.50;;;;;;;3.19;100.00;99297.94;105323;1261;99041;-75
2023/02/02 07:21:51;;;;;;;11.50;5.30;;;;;;;3.18;100.00;99301.06;105338;1261;97962;-74
2023/02/02 07:24:37;;;;;;;9.70;4.60;;;;;;;3.14;100.00;99302.49;105095;1258;98465;-74
2023/02/02 07:27:23;;;;;;;8.70;4.40;;;;;;;3.11;100.00;99306.52;105254;1260;102683;-74
2023/02/02 07:30:09;;;;;;;12.20;5.30;;;;;;;3.08;100.00;99310.39;105225;1259;99409;-73
2023/02/02 07:32:55;;;;;;;9.60;5.00;;;;;;;3.07;100.00;99308.44;105282;1257;97945;-74
2023/02/02 07:35:41;;;;;;;14.00;6.50;;;;;;;3.04;100.00;99309.57;105197;1257;98840;-73
2023/02/02 07:38:27;;;;;;;9.60;5.80;;;;;;;3.05;100.00;99311.30;105328;1256;98420;-74
2023/02/02 07:41:14;;;;;;;12.40;5.80;;;;;;;3.06;100.00;99309.09;105178;1259;102616;-74
2023/02/02 07:44:00;;;;;;;7.80;5.00;;;;;;;3.05;100.00;99309.47;105228;1257;100506;-73
2023/02/02 07:46:46;;;;;;;6.10;4.20;;;;;;;3.04;100.00;99311.69;105192;1259;98482;-74
2023/02/02 07:49:31;;;;;;;13.90;5.60;;;;;;;3.05;100.00;99313.20;105192;1259;97960;-73
2023/02/02 07:52:17;;;;;;;11.30;5.20;;;;;;;3.08;100.00;99314.15;105215;1257;98399;-73
2023/02/02 07:55:03;;;;;;;41.20;22.00;;;;;;;3.10;100.00;99313.36;105389;1259;101387;-74
2023/02/02 07:57:51;;;;;;;16.30;9.80;;;;;;;3.11;100.00;99313.98;106047;1259;100182;-80
2023/02/02 08:00:36;;;;;;;27.40;13.70;;;;;;;3.09;100.00;99316.07;106318;1259;99119;-81
2023/02/02 08:03:22;;;;;;;223.40;118.60;;;;;;;3.10;100.00;99318.48;106026;1263;121489;-81
2023/02/02 08:06:11;;;;;;;171.10;81.50;;;;;;;3.14;100.00;99322.96;105999;1257;98344;-78
2023/02/02 08:08:58;;;;;;;333.10;143.80;;;;;;;3.18;100.00;99324.02;105622;1256;102350;-80
2023/02/02 08:11:43;;;;;;;45.90;24.40;;;;;;;3.19;100.00;99323.31;106318;1257;99450;-83
2023/02/02 08:14:29;;;;;;;46.70;29.10;;;;;;;3.20;100.00;99329.43;106155;1261;98453;-83
2023/02/02 08:17:22;;;;;;;15.90;10.50;;;;;;;3.22;100.00;99328.27;106160;1257;97941;-85
2023/02/02 08:20:09;;;;;;;10.90;6.30;;;;;;;3.25;100.00;99331.62;106374;1255;96833;-86
2023/02/02 08:22:55;;;;;;;10.00;4.50;;;;;;;3.27;100.00;99338.95;105919;1261;101361;-76
2023/02/02 08:25:41;;;;;;;14.80;9.80;;;;;;;3.27;100.00;99340.72;105685;1258;99174;-82
2023/02/02 08:28:26;;;;;;;12.20;9.00;;;;;;;3.28;100.00;99341.14;106257;1259;97967;-83
2023/02/02 08:31:21;;;;;;;14.30;8.10;;;;;;;3.27;100.00;99341.23;105755;1257;98963;-74
2023/02/02 08:34:06;;;;;;;14.40;12.30;;;;;;;3.25;100.00;99344.66;105705;1261;97840;-82
2023/02/02 08:36:51;;;;;;;17.20;11.00;;;;;;;3.26;100.00;99348.93;106031;1257;102189;-85
2023/02/02 08:39:38;;;;;;;9.40;6.80;;;;;;;3.27;100.00;99352.20;106002;1259;99169;-79
2023/02/02 08:42:23;;;;;;;14.90;10.70;;;;;;;3.24;100.00;99358.39;105521;1270;98056;-77
2023/02/02 08:45:09;;;;;;;10.40;9.00;;;;;;;3.22;100.00;99362.30;105593;1261;98091;-78
2023/02/02 08:47:54;;;;;;;10.60;9.60;;;;;;;3.21;100.00;99366.80;105544;1258;97799;-78
2023/02/02 08:50:40;;;;;;;13.60;10.20;;;;;;;3.20;100.00;99367.46;105591;1261;102573;-78
2023/02/02 08:53:26;;;;;;;6.80;5.20;;;;;;;3.19;100.00;99368.66;106431;1256;99187;-77
2023/02/02 08:56:15;;;;;;;14.50;11.30;;;;;;;3.19;100.00;99372.04;105765;1259;97958;-78
2023/02/02 08:59:03;;;;;;;7.30;5.60;;;;;;;3.20;100.00;99373.29;105902;1261;97752;-79
2023/02/02 09:01:49;;;;;;;8.40;5.00;;;;;;;3.22;100.00;99379.92;106227;1259;97953;-82
2023/02/02 09:04:34;;;;;;;8.70;6.70;;;;;;;3.25;100.00;99381.03;106213;1257;101319;-80
2023/02/02 09:07:19;;;;;;;7.30;4.90;;;;;;;3.25;100.00;99385.92;106177;1257;100385;-80
2023/02/02 09:10:06;;;;;;;7.70;4.80;;;;;;;3.24;100.00;99387.30;105565;1261;98989;-79
2023/02/02 09:12:51;;;;;;;7.10;4.70;;;;;;;3.28;100.00;99391.83;105747;1258;97880;-81
2023/02/02 09:15:37;;;;;;;6.70;3.50;;;;;;;3.30;100.00;99395.65;105533;1257;98497;-74
2023/02/02 09:18:23;;;;;;;5.70;3.70;;;;;;;3.30;100.00;99397.87;105552;1261;102549;-75
2023/02/02 09:21:11;;;;;;;6.20;3.80;;;;;;;3.31;100.00;99401.94;105656;1261;100339;-79
2023/02/02 09:23:57;;;;;;;6.00;3.40;;;;;;;3.28;100.00;99404.89;105845;1257;97994;-74
2023/02/02 09:26:43;;;;;;;8.40;5.30;;;;;;;3.27;100.00;99409.42;105401;1256;97969;-73
2023/02/02 09:29:29;;;;;;;6.00;3.60;;;;;;;3.28;100.00;99417.77;105276;1260;98615;-73
2023/02/02 09:32:14;;;;;;;8.30;4.80;;;;;;;3.26;100.00;99424.11;105302;1259;101636;-73
2023/02/02 09:35:00;;;;;;;4.50;3.80;;;;;;;3.26;100.00;99432.98;105203;1258;100328;-73
2023/02/02 09:37:45;;;;;;;4.80;3.80;;;;;;;3.23;100.00;99441.20;105295;1274;99930;-73
2023/02/02 09:40:33;;;;;;;5.40;3.60;;;;;;;3.20;100.00;99446.35;105422;1259;97973;-76
2023/02/02 09:43:57;;;;;;;5.60;3.80;;;;;;;3.16;100.00;99451.84;105460;1261;98034;-75
2023/02/02 09:47:18;;;;;;;4.20;3.40;;;;;;;3.14;100.00;99461.99;105447;1259;102640;-75
2023/02/02 09:50:33;;;;;;;7.10;3.70;;;;;;;3.10;100.00;99465.61;105435;1261;99066;-75
2023/02/02 09:53:34;;;;;;;4.80;3.00;;;;;;;3.09;100.00;99468.13;105498;1259;99340;-83
2023/02/02 09:56:37;;;;;;;5.70;3.70;;;;;;;3.16;100.00;99470.96;105738;1259;97920;-81
2023/02/02 09:59:28;;;;;;;5.50;4.50;;;;;;;3.21;100.00;99474.82;106325;1255;97899;-81
2023/02/02 10:02:37;;;;;;;9.40;4.60;;;;;;;3.24;100.00;99480.64;106287;1259;101446;-81
2023/02/02 10:05:28;;;;;;;5.60;3.80;;;;;;;3.25;100.00;99489.34;105912;1261;100499;-75
2023/02/02 10:08:23;;;;;;;6.20;4.30;;;;;;;3.27;100.00;99494.83;105963;1260;97971;-79
2023/02/02 10:11:28;;;;;;;5.20;4.00;;;;;;;3.27;100.00;99495.48;106323;1257;97983;-79
2023/02/02 10:14:24;;;;;;;5.30;4.20;;;;;;;3.30;100.00;99497.81;106080;1261;97875;-80
2023/02/02 10:17:31;;;;;;;6.10;3.50;;;;;;;3.32;100.00;99504.67;106319;1257;102108;-79
2023/02/02 10:20:44;;;;;;;4.80;4.10;;;;;;;3.31;100.00;99512.02;106345;1259;100158;-80
2023/02/02 10:23:39;;;;;;;6.10;3.60;;;;;;;3.35;100.00;99519.86;106203;1262;98044;-80
2023/02/02 10:26:52;;;;;;;7.90;4.20;;;;;;;3.42;100.00;99527.73;106277;1259;97842;-79
2023/02/02 10:29:45;;;;;;;5.00;3.30;;;;;;;3.47;100.00;99532.40;105792;1261;98489;-80
2023/02/02 10:32:40;;;;;;;5.50;3.90;;;;;;;3.47;100.00;99535.56;106314;1258;101313;-80
2023/02/02 10:35:28;;;;;;;6.10;3.80;;;;;;;3.45;100.00;99536.89;105712;1259;101416;-80
2023/02/02 10:38:58;;;;;;;5.90;3.80;;;;;;;3.47;100.00;99541.95;106219;1257;98686;-83
2023/02/02 10:41:55;;;;;;;5.00;4.20;;;;;;;3.46;100.00;99549.16;105612;1261;97976;-74
2023/02/02 10:44:55;;;;;;;5.70;4.30;;;;;;;3.46;100.00;99554.57;105902;1259;96607;-80
2023/02/02 10:47:41;;;;;;;6.30;5.10;;;;;;;3.49;100.00;99557.80;105767;1257;102666;-83
2023/02/02 10:50:26;;;;;;;5.80;4.30;;;;;;;3.52;100.00;99559.75;105250;1259;100352;-74
2023/02/02 10:53:14;;;;;;;5.00;3.90;;;;;;;3.56;100.00;99567.23;105132;1259;97989;-72
2023/02/02 10:56:10;;;;;;;5.70;4.10;;;;;;;3.61;100.00;99571.46;105067;1262;98051;-72
2023/02/02 10:59:08;;;;;;;6.30;4.70;;;;;;;3.62;100.00;99570.83;105100;1257;98479;-72
2023/02/02 11:01:53;;;;;;;5.60;4.30;;;;;;;3.64;100.00;99574.13;105354;1269;101326;-73
2023/02/02 11:07:43;;;;;;;6.40;5.60;;;;;;;3.71;100.00;99580.55;106308;1258;97929;-73
2023/02/02 11:10:31;;;;;;;8.40;5.80;;;;;;;3.69;100.00;99583.80;105403;1260;98159;-75
2023/02/02 11:13:32;;;;;;;9.80;5.90;;;;;;;3.66;100.00;99585.75;105390;1260;98418;-76
2023/02/02 11:16:25;;;;;;;6.90;5.80;;;;;;;3.66;100.00;99590.32;105134;1257;101440;-75
2023/02/02 11:19:18;;;;;;;8.50;6.20;;;;;;;3.67;100.00;99592.84;105263;1261;99146;-75
2023/02/02 11:22:04;;;;;;;7.90;6.50;;;;;;;3.68;100.00;99597.86;105280;1259;97969;-76
2023/02/02 11:24:52;;;;;;;8.70;6.10;;;;;;;3.70;100.00;99601.70;105504;1259;97942;-78
2023/02/02 11:27:40;;;;;;;8.60;5.60;;;;;;;3.73;100.00;99602.42;105747;1261;100550;-80
2023/02/02 11:30:36;;;;;;;12.80;6.70;;;;;;;3.73;100.00;99607.55;105666;1259;102613;-77
2023/02/02 11:33:29;;;;;;;11.00;6.10;;;;;;;3.72;100.00;99612.39;105579;1260;99164;-82
2023/02/02 11:36:20;;;;;;;7.80;6.00;;;;;;;3.73;100.00;99620.97;106274;1259;98986;-79
2023/02/02 11:39:19;;;;;;;9.90;6.70;;;;;;;3.73;100.00;99624.67;105710;1261;97962;-81
2023/02/02 11:42:17;;;;;;;7.90;6.30;;;;;;;3.73;100.00;99626.98;105643;1261;98811;-79
2023/02/02 11:45:04;;;;;;;9.10;6.10;;;;;;;3.73;100.00;99631.75;106313;1260;101358;-78
2023/02/02 11:47:50;;;;;;;12.50;7.10;;;;;;;3.74;100.00;99636.27;105699;1261;99163;-80
2023/02/02 11:50:36;;;;;;;7.90;6.20;;;;;;;3.73;100.00;99640.10;105893;1261;99281;-83
2023/02/02 11:53:25;;;;;;;11.00;6.30;;;;;;;3.71;100.00;99645.40;105986;1259;98666;-79
2023/02/02 11:56:22;;;;;;;9.20;5.70;;;;;;;3.72;100.00;99646.28;105686;1261;99212;-79
2023/02/02 11:59:28;;;;;;;7.80;5.10;;;;;;;3.74;100.00;99655.66;105723;1261;101324;-80
2023/02/02 12:02:21;;;;;;;7.80;5.50;;;;;;;3.71;100.00;99662.22;105856;1261;100707;-83
2023/02/02 12:05:10;;;;;;;6.20;4.40;;;;;;;3.67;100.00;99668.58;106232;1261;99073;-80
2023/02/02 12:07:55;;;;;;;8.00;5.50;;;;;;;3.64;100.00;99677.02;106277;1262;96644;-81
2023/02/02 12:10:49;;;;;;;5.00;4.20;;;;;;;3.63;100.00;99687.02;106115;1261;98512;-81
2023/02/02 12:13:43;;;;;;;7.60;4.80;;;;;;;3.63;100.00;99691.65;106217;1261;101251;-80
2023/02/02 12:16:52;;;;;;;5.20;4.20;;;;;;;3.61;100.00;99700.14;106175;1261;99097;-82
2023/02/02 12:20:00;;;;;;;5.60;3.20;;;;;;;3.55;100.00;99711.59;106202;1261;97871;-86
2023/02/02 12:22:56;;;;;;;8.30;4.10;;;;;;;3.51;100.00;99721.12;106405;1262;97918;-88
2023/02/02 12:26:04;;;;;;;7.80;3.90;;;;;;;3.49;100.00;99733.56;106274;1262;98466;-81
2023/02/02 12:29:15;;;;;;;4.00;2.90;;;;;;;3.48;100.00;99748.48;106330;1261;102013;-80
2023/02/02 12:32:22;;;;;;;6.00;2.80;;;;;;;3.46;100.00;99758.73;106343;1261;99784;-79
2023/02/02 12:35:25;;;;;;;2.90;2.10;;;;;;;3.46;100.00;99769.72;105556;1261;99312;-75
2023/02/02 12:38:33;;;;;;;3.10;2.20;;;;;;;3.44;100.00;99768.91;105526;1271;98745;-74
2023/02/02 12:42:00;;;;;;;3.80;1.20;;;;;;;3.38;100.00;99777.84;105192;1262;98445;-75
2023/02/02 12:45:07;;;;;;;3.20;1.60;;;;;;;3.31;100.00;99787.17;106630;1257;101376;-81
2023/02/02 12:48:24;;;;;;;2.10;1.60;;;;;;;3.29;100.00;99787.23;106706;1261;99093;-80
2023/02/02 12:51:57;;;;;;;2.20;1.60;;;;;;;3.35;100.00;99795.83;106178;1258;97940;-80
2023/02/02 12:55:09;;;;;;;3.90;2.10;;;;;;;3.47;100.00;99797.13;106523;1260;98064;-81
2023/02/02 12:58:07;;;;;;;2.90;2.30;;;;;;;3.59;100.00;99799.97;106254;1263;99311;-80
2023/02/02 13:01:04;;;;;;;5.00;2.60;;;;;;;3.67;100.00;99806.11;105774;1264;101343;-79
2023/02/02 13:04:17;;;;;;;4.50;2.70;;;;;;;3.73;100.00;99811.98;106132;1257;99138;-81
2023/02/02 13:07:15;;;;;;;4.70;3.00;;;;;;;3.82;100.00;99818.63;106287;1257;97968;-80
2023/02/02 13:10:16;;;;;;;5.60;3.50;;;;;;;3.91;100.00;99824.51;105608;1269;97985;-78
2023/02/02 13:13:20;;;;;;;4.30;2.60;;;;;;;3.99;100.00;99829.88;105704;1260;97970;-84
2023/02/02 13:16:10;;;;;;;4.90;3.00;;;;;;;4.05;100.00;99834.37;105984;1263;103010;-82